CheckWX is a tool to help pilots better visualize weather data.  It is not intended as a substitute for an official pre-flight weather briefing.

05:38:43 UTC

DTTG METAR
Gabès Matmata International Airport
Gabès, Tunisia
Current

39 mins ago

DTTG 240500Z 33016KT 5000 FEW020 SCT030 05/M03 Q1018 NOSIG
Observed
Feb-24 @ 05:00 UTC
Wind
  • 330° at 16 KTS
Visibility
5,005 meters
Flight Rules
MVFR
Cloud Levels
  • Few at 2,000' AGL
  • Scattered at 3,000' AGL
Temperature
C / 41°F
Dewpoint
-3°C / 27°F
Humidity
57%
Altimeter
30.06" Hg
Pressure
1017.92 hPa
Previous

2 hours ago

DTTG 240400Z 32010KT 5000 FEW020 SCT030 05/M03 Q1018 NOSIG
Observed
Feb-24 @ 04:00 UTC
Wind
  • 320° at 10 KTS
Visibility
5,005 meters
Flight Rules
MVFR
Cloud Levels
  • Few at 2,000' AGL
  • Scattered at 3,000' AGL
Temperature
C / 41°F
Dewpoint
-3°C / 27°F
Humidity
57%
Altimeter
30.06" Hg
Pressure
1017.92 hPa
Previous

3 hours ago

DTTG 240300Z 33012KT 5000 SCT020 SCT030 05/M02 Q1018 NOSIG
Observed
Feb-24 @ 03:00 UTC
Wind
  • 330° at 12 KTS
Visibility
5,005 meters
Flight Rules
MVFR
Cloud Levels
  • Scattered at 2,000' AGL
  • Scattered at 3,000' AGL
Temperature
C / 41°F
Dewpoint
-2°C / 28°F
Humidity
61%
Altimeter
30.06" Hg
Pressure
1017.92 hPa